Time;durP1;ratioP1;P1;durP2;ratioP2;P2;SDS_P1;SDS_P2;PMS_P1;PMS_P2;Temp;Humidity;BMP_temperature;BMP_pressure;BME280_temperature;BME280_humidity;BME280_pressure;Samples;Min_cycle;Max_cycle;Signal;HPM_P1;HPM_P2
2022/03/21 00:00:44;;;;;;;12.20;7.70;;;5.70;30.90;;;;;;5014197;28;20214;-85
2022/03/21 00:03:13;;;;;;;11.10;8.60;;;5.70;30.50;;;;;;5010934;28;20217;-85
2022/03/21 00:05:40;;;;;;;12.07;9.00;;;5.50;31.60;;;;;;5015241;28;20231;-85
2022/03/21 00:08:10;;;;;;;12.53;8.67;;;5.10;30.70;;;;;;5012528;28;20220;-85
2022/03/21 00:10:38;;;;;;;12.03;8.70;;;5.00;31.80;;;;;;5006230;28;20195;-85
2022/03/21 00:13:06;;;;;;;10.97;8.23;;;4.90;32.40;;;;;;5012154;28;20219;-85
2022/03/21 00:15:34;;;;;;;11.23;8.13;;;5.00;32.30;;;;;;5011838;28;20666;-85
2022/03/21 00:18:02;;;;;;;15.10;8.97;;;5.20;34.90;;;;;;5014559;28;20259;-85
2022/03/21 00:20:30;;;;;;;12.10;8.80;;;5.40;34.50;;;;;;5021326;28;20203;-85
2022/03/21 00:22:57;;;;;;;11.83;8.80;;;5.50;33.80;;;;;;5011551;28;20229;-85
2022/03/21 00:25:26;;;;;;;15.77;8.07;;;5.60;35.10;;;;;;5013475;28;20246;-85
2022/03/21 00:27:53;;;;;;;12.47;8.27;;;5.60;35.50;;;;;;5016574;28;20662;-85
2022/03/21 00:30:20;;;;;;;11.30;8.13;;;5.60;36.20;;;;;;5012356;28;20215;-86
2022/03/21 00:32:48;;;;;;;13.53;8.97;;;5.50;35.50;;;;;;5015179;28;20690;-87
2022/03/21 00:35:16;;;;;;;12.43;8.63;;;5.50;36.20;;;;;;5012066;28;20200;-86
2022/03/21 00:37:44;;;;;;;13.77;9.07;;;5.40;36.70;;;;;;5019570;28;20251;-86
2022/03/21 00:40:12;;;;;;;12.90;8.50;;;5.30;36.20;;;;;;5016775;28;20199;-86
2022/03/21 00:42:43;;;;;;;13.13;9.37;;;5.20;37.30;;;;;;5015598;28;20227;-86
2022/03/21 00:45:12;;;;;;;12.83;8.77;;;5.20;38.20;;;;;;5015098;28;20254;-87
2022/03/21 00:47:40;;;;;;;12.70;8.97;;;5.20;38.20;;;;;;5003304;28;20245;-87
2022/03/21 00:50:10;;;;;;;13.97;8.93;;;5.10;37.30;;;;;;5012529;28;20223;-86
2022/03/21 00:52:42;;;;;;;12.27;8.37;;;5.10;38.00;;;;;;5014504;28;20220;-87
2022/03/21 00:55:10;;;;;;;12.10;8.90;;;5.00;38.20;;;;;;5022541;28;20259;-86
2022/03/21 00:57:40;;;;;;;11.43;8.90;;;5.00;38.40;;;;;;5014592;28;20322;-86
2022/03/21 01:00:12;;;;;;;13.03;8.57;;;4.90;39.50;;;;;;5013382;28;20196;-87
2022/03/21 01:02:40;;;;;;;12.23;8.93;;;4.90;39.80;;;;;;5014099;28;20255;-87
2022/03/21 01:05:09;;;;;;;13.67;8.77;;;4.90;39.40;;;;;;5017236;28;20872;-86
2022/03/21 01:07:37;;;;;;;14.90;9.20;;;4.80;38.30;;;;;;5018090;28;20231;-87
2022/03/21 01:10:13;;;;;;;14.03;9.20;;;4.50;37.70;;;;;;5021401;28;20262;-87
2022/03/21 01:12:51;;;;;;;15.77;9.77;;;4.10;38.00;;;;;;5017276;28;20247;-87
2022/03/21 01:15:23;;;;;;;13.70;8.60;;;3.80;39.60;;;;;;5027679;28;20221;-87
2022/03/21 01:17:51;;;;;;;12.17;8.80;;;3.70;43.20;;;;;;5019746;28;20250;-88
2022/03/21 01:20:20;;;;;;;14.90;9.60;;;3.90;45.30;;;;;;5021976;28;20567;-87
2022/03/21 01:22:49;;;;;;;15.53;9.27;;;4.20;43.70;;;;;;5014334;28;20231;-86
2022/03/21 01:25:19;;;;;;;13.80;8.97;;;4.30;43.70;;;;;;5014548;28;20223;-87
2022/03/21 01:27:48;;;;;;;12.60;8.77;;;4.10;42.30;;;;;;5017978;28;20310;-86
2022/03/21 01:30:19;;;;;;;15.27;9.00;;;4.00;44.60;;;;;;5021520;28;20217;-86
2022/03/21 01:32:50;;;;;;;14.80;9.27;;;3.70;43.20;;;;;;5020217;28;20239;-87
2022/03/21 01:35:30;;;;;;;11.47;8.57;;;3.40;43.00;;;;;;5016629;28;20204;-86
2022/03/21 01:38:08;;;;;;;14.33;9.17;;;3.30;42.90;;;;;;5011752;28;20230;-86
2022/03/21 01:40:36;;;;;;;12.03;8.30;;;3.60;46.60;;;;;;5018842;28;20222;-86
2022/03/21 01:43:10;;;;;;;13.77;9.23;;;3.80;47.30;;;;;;5013300;28;20287;-87
2022/03/21 01:45:39;;;;;;;12.70;8.67;;;4.00;48.30;;;;;;5017291;28;20698;-87
2022/03/21 01:48:07;;;;;;;11.70;8.30;;;4.20;46.60;;;;;;5009302;28;20219;-87
2022/03/21 01:50:37;;;;;;;11.50;8.70;;;4.20;46.80;;;;;;5011285;28;20202;-86
2022/03/21 01:55:48;;;;;;;15.83;8.83;;;4.20;45.00;;;;;;4979848;28;20226;-86
2022/03/21 01:58:16;;;;;;;14.07;9.20;;;4.20;45.60;;;;;;5006414;28;20227;-87
2022/03/21 02:00:46;;;;;;;11.40;8.37;;;4.20;43.70;;;;;;5013101;28;20210;-86
2022/03/21 02:06:33;;;;;;;13.70;8.90;;;4.00;43.90;;;;;;5005712;28;20251;-86
2022/03/21 02:09:05;;;;;;;11.40;8.10;;;4.10;43.60;;;;;;5006553;28;20210;-87
2022/03/21 02:11:36;;;;;;;12.23;8.53;;;4.00;43.50;;;;;;5014493;28;20234;-87
2022/03/21 02:14:07;;;;;;;12.23;8.60;;;4.00;43.50;;;;;;5009592;28;20247;-88
2022/03/21 02:16:38;;;;;;;13.07;8.93;;;3.70;44.40;;;;;;5019080;28;20343;-88
2022/03/21 02:19:14;;;;;;;12.90;8.93;;;3.60;43.10;;;;;;5025762;28;20263;-87
2022/03/21 02:21:58;;;;;;;13.87;9.03;;;3.40;48.00;;;;;;5021662;28;20232;-88
2022/03/21 02:24:36;;;;;;;13.60;9.10;;;3.50;47.90;;;;;;5026154;28;20266;-87
2022/03/21 02:29:51;;;;;;;12.20;8.60;;;3.20;44.40;;;;;;5018913;28;20199;-90
2022/03/21 02:32:20;;;;;;;13.37;9.10;;;2.90;48.10;;;;;;5009568;28;20234;-90
2022/03/21 02:34:48;;;;;;;12.17;8.83;;;2.80;49.60;;;;;;5007279;28;20203;-90
2022/03/21 02:37:18;;;;;;;15.00;9.23;;;2.90;54.50;;;;;;5005124;28;20223;-90
2022/03/21 02:39:46;;;;;;;13.07;9.13;;;3.00;51.00;;;;;;5008675;28;20195;-89
2022/03/21 02:42:23;;;;;;;14.63;9.83;;;3.00;53.80;;;;;;5011658;28;20227;-90
2022/03/21 02:44:50;;;;;;;13.53;9.73;;;3.20;52.60;;;;;;4989179;28;20197;-89
2022/03/21 02:47:17;;;;;;;14.80;10.20;;;3.20;49.30;;;;;;5005561;28;21058;-89
2022/03/21 02:49:45;;;;;;;12.37;9.27;;;2.90;49.40;;;;;;5007662;28;20205;-90
2022/03/21 02:52:15;;;;;;;15.90;10.17;;;2.50;51.80;;;;;;5008157;28;20225;-89
2022/03/21 02:54:42;;;;;;;14.30;9.53;;;2.20;53.90;;;;;;5006725;28;20825;-89
2022/03/21 02:57:09;;;;;;;14.10;9.60;;;2.30;57.90;;;;;;5007571;28;20219;-89
2022/03/21 02:59:42;;;;;;;13.53;9.17;;;2.60;58.00;;;;;;5004806;28;20208;-90
2022/03/21 03:02:10;;;;;;;14.67;9.80;;;2.90;57.40;;;;;;5012113;28;20223;-90
2022/03/21 03:04:37;;;;;;;15.97;10.20;;;3.10;56.30;;;;;;5007213;28;20701;-90
2022/03/21 03:07:04;;;;;;;15.37;9.80;;;3.00;53.30;;;;;;5011880;28;20314;-90
2022/03/21 03:09:31;;;;;;;13.87;10.23;;;2.80;54.70;;;;;;5005560;28;20207;-90
2022/03/21 03:11:58;;;;;;;15.27;10.47;;;2.70;58.60;;;;;;5004920;28;20230;-90
2022/03/21 03:14:25;;;;;;;16.13;10.40;;;2.90;58.50;;;;;;5015888;28;20204;-90
2022/03/21 03:16:56;;;;;;;15.07;9.80;;;3.00;57.20;;;;;;5005057;28;20220;-90
2022/03/21 03:19:23;;;;;;;12.70;9.53;;;3.00;57.30;;;;;;5011565;28;20681;-90
2022/03/21 03:21:51;;;;;;;15.87;10.17;;;3.00;57.60;;;;;;5008147;28;20219;-90
2022/03/21 03:24:23;;;;;;;13.77;10.13;;;3.10;57.50;;;;;;5004355;28;20225;-89
2022/03/21 03:26:50;;;;;;;13.33;10.00;;;3.10;57.10;;;;;;5006875;28;20592;-89
2022/03/21 03:29:17;;;;;;;13.87;10.37;;;3.10;57.10;;;;;;5006049;28;20230;-89
2022/03/21 03:31:45;;;;;;;15.37;10.77;;;2.90;55.60;;;;;;5008863;28;20242;-90
2022/03/21 03:34:14;;;;;;;17.00;10.90;;;2.70;58.40;;;;;;5007607;28;20199;-89
2022/03/21 03:36:41;;;;;;;15.17;10.37;;;2.50;57.20;;;;;;5009499;28;20234;-90
2022/03/21 03:39:08;;;;;;;14.83;10.10;;;2.40;59.30;;;;;;5010732;28;20211;-89
2022/03/21 03:41:36;;;;;;;16.10;10.23;;;2.50;63.00;;;;;;5005447;28;20234;-89
2022/03/21 03:44:03;;;;;;;14.20;10.13;;;2.70;63.20;;;;;;5012993;28;20201;-89
2022/03/21 03:46:31;;;;;;;15.17;10.27;;;2.70;58.20;;;;;;5002231;28;20582;-89
2022/03/21 03:48:58;;;;;;;13.17;9.97;;;2.50;59.80;;;;;;4999862;28;20196;-89
2022/03/21 03:51:26;;;;;;;16.33;10.73;;;2.50;61.50;;;;;;5003669;28;20204;-90
2022/03/21 03:53:53;;;;;;;14.37;10.50;;;2.40;62.80;;;;;;5007148;28;20215;-89
2022/03/21 03:56:20;;;;;;;14.67;10.93;;;2.20;60.40;;;;;;5015596;28;20206;-89
2022/03/21 03:58:47;;;;;;;15.00;10.37;;;2.00;66.60;;;;;;5007308;28;20199;-89
2022/03/21 04:01:15;;;;;;;15.70;9.73;;;2.30;65.90;;;;;;4993522;28;20214;-89
2022/03/21 04:03:46;;;;;;;16.70;10.20;;;2.30;67.00;;;;;;4995848;28;20198;-90
2022/03/21 04:06:15;;;;;;;16.87;10.53;;;2.50;67.10;;;;;;5011119;28;20575;-89
2022/03/21 04:08:44;;;;;;;16.17;10.50;;;2.50;60.60;;;;;;4988895;28;20218;-89
2022/03/21 04:11:11;;;;;;;14.93;10.30;;;2.10;61.50;;;;;;5010888;28;20199;-90
2022/03/21 04:13:39;;;;;;;13.70;9.60;;;1.90;65.30;;;;;;5005200;28;20214;-89
2022/03/21 04:16:07;;;;;;;13.93;9.87;;;2.10;66.70;;;;;;5005766;28;20210;-90
2022/03/21 04:21:49;;;;;;;13.33;9.03;;;2.40;63.80;;;;;;4968806;28;20349;-89
2022/03/21 04:24:17;;;;;;;13.60;9.90;;;2.10;63.80;;;;;;5008871;28;20294;-89
2022/03/21 04:26:44;;;;;;;14.43;9.93;;;1.80;63.90;;;;;;5003637;28;20237;-90
2022/03/21 04:29:12;;;;;;;13.40;9.20;;;1.60;66.30;;;;;;5008233;28;20233;-89
2022/03/21 04:31:39;;;;;;;14.87;9.47;;;1.80;70.70;;;;;;4990420;28;20241;-89
2022/03/21 04:34:06;;;;;;;15.33;9.43;;;2.20;68.90;;;;;;5013334;28;20213;-89
2022/03/21 04:36:34;;;;;;;13.43;9.40;;;2.40;67.00;;;;;;5006144;28;20234;-89
2022/03/21 04:39:01;;;;;;;14.17;9.03;;;2.40;67.00;;;;;;4992598;28;20219;-89
2022/03/21 04:41:29;;;;;;;13.63;9.57;;;2.50;66.20;;;;;;5000767;28;20248;-89
2022/03/21 04:43:57;;;;;;;13.33;9.10;;;2.50;63.80;;;;;;4992938;28;20206;-90
2022/03/21 04:46:24;;;;;;;13.30;9.30;;;2.50;64.80;;;;;;5006348;28;20258;-89
2022/03/21 04:48:51;;;;;;;12.57;9.00;;;2.50;60.60;;;;;;5007363;28;20207;-89
2022/03/21 04:51:18;;;;;;;12.10;8.90;;;2.00;61.10;;;;;;5015571;28;20217;-90
2022/03/21 04:53:45;;;;;;;13.10;9.37;;;2.10;66.70;;;;;;5009980;28;20660;-89
2022/03/21 04:58:54;;;;;;;15.33;9.13;;;2.20;64.00;;;;;;4985986;28;20199;-89
2022/03/21 05:01:23;;;;;;;14.57;9.10;;;2.00;66.30;;;;;;4999340;28;20204;-89
2022/03/21 05:03:51;;;;;;;13.30;9.63;;;1.80;66.40;;;;;;5001885;28;20207;-89
2022/03/21 05:06:18;;;;;;;15.00;9.50;;;1.70;66.30;;;;;;5010237;28;20668;-89
2022/03/21 05:08:45;;;;;;;15.20;8.87;;;1.90;70.70;;;;;;5003354;28;20680;-89
2022/03/21 05:11:12;;;;;;;20.20;9.60;;;2.20;68.70;;;;;;5014437;28;20219;-89
2022/03/21 05:13:40;;;;;;;16.80;9.77;;;2.30;67.00;;;;;;5011672;28;20907;-89
2022/03/21 05:16:09;;;;;;;13.50;9.37;;;2.50;67.10;;;;;;5008659;28;20203;-89
2022/03/21 05:18:37;;;;;;;12.47;8.50;;;2.60;67.00;;;;;;4982589;28;20207;-89
2022/03/21 05:21:05;;;;;;;12.63;8.93;;;2.60;64.00;;;;;;5010010;28;20259;-90
2022/03/21 05:31:48;;;;;;;16.70;9.57;;;2.80;62.20;;;;;;5006240;28;20233;-89
2022/03/21 05:36:59;;;;;;;13.27;8.90;;;2.30;64.90;;;;;;4998371;28;20251;-89
2022/03/21 05:39:26;;;;;;;15.20;9.43;;;2.50;67.10;;;;;;5009279;28;20206;-89
2022/03/21 05:41:53;;;;;;;21.20;10.17;;;2.50;62.90;;;;;;5010615;28;20314;-90
2022/03/21 05:44:21;;;;;;;14.50;9.67;;;2.30;62.50;;;;;;5004933;28;20209;-90
2022/03/21 05:46:49;;;;;;;14.77;9.57;;;2.20;70.30;;;;;;5011595;28;20601;-90
2022/03/21 05:49:19;;;;;;;13.77;8.77;;;2.70;67.40;;;;;;5004793;28;20199;-91
2022/03/21 05:51:46;;;;;;;15.27;9.67;;;3.10;63.50;;;;;;5009583;28;20321;-90
2022/03/21 05:54:14;;;;;;;16.97;9.23;;;2.90;65.50;;;;;;5011320;28;20203;-90
2022/03/21 05:56:43;;;;;;;13.37;9.20;;;3.10;61.60;;;;;;5012462;28;20590;-89
2022/03/21 06:02:04;;;;;;;16.17;9.67;;;3.60;60.30;;;;;;5011512;28;20230;-90
2022/03/21 06:04:31;;;;;;;15.17;10.40;;;3.70;54.30;;;;;;5006942;28;20654;-90
2022/03/21 06:06:58;;;;;;;14.50;10.10;;;3.30;55.90;;;;;;5014934;28;20231;-90
2022/03/21 06:09:25;;;;;;;15.03;10.20;;;3.10;58.50;;;;;;5014686;28;20221;-90
2022/03/21 06:11:52;;;;;;;16.17;9.40;;;3.00;63.20;;;;;;5002493;28;20243;-89
2022/03/21 06:14:20;;;;;;;14.57;9.60;;;3.60;61.20;;;;;;5004906;28;20199;-90
2022/03/21 06:16:48;;;;;;;14.83;9.07;;;4.10;59.40;;;;;;5012966;28;20678;-90
2022/03/21 06:19:18;;;;;;;15.93;9.70;;;4.50;54.60;;;;;;5004106;28;20204;-90
2022/03/21 06:21:49;;;;;;;17.80;10.47;;;4.60;52.20;;;;;;5023616;28;20222;-89
2022/03/21 06:24:18;;;;;;;15.43;9.63;;;4.70;48.70;;;;;;5011037;28;20286;-92
2022/03/21 06:26:52;;;;;;;16.93;9.67;;;4.60;53.70;;;;;;5013120;28;20219;-89
2022/03/21 06:29:21;;;;;;;13.87;10.43;;;4.90;51.30;;;;;;5008810;28;20636;-88
2022/03/21 06:31:55;;;;;;;20.17;10.30;;;4.90;49.80;;;;;;5014628;28;20865;-87
2022/03/21 06:34:24;;;;;;;20.63;10.43;;;4.70;49.70;;;;;;5016520;28;20658;-84
2022/03/21 06:36:52;;;;;;;16.57;10.30;;;4.80;51.20;;;;;;5012655;28;20230;-83
2022/03/21 06:39:20;;;;;;;19.83;10.27;;;4.90;50.40;;;;;;5019899;28;20199;-84
2022/03/21 06:41:51;;;;;;;22.70;11.23;;;5.20;47.40;;;;;;5021109;28;20261;-84
2022/03/21 06:44:18;;;;;;;15.43;10.43;;;5.30;48.30;;;;;;5023433;28;20206;-84
2022/03/21 06:46:45;;;;;;;22.13;9.90;;;5.60;46.80;;;;;;5027015;28;20237;-84
2022/03/21 06:49:12;;;;;;;20.23;10.43;;;5.80;45.00;;;;;;5018716;28;20655;-86
2022/03/21 06:51:41;;;;;;;22.13;10.37;;;6.20;43.30;;;;;;5015911;28;20259;-86
2022/03/21 06:54:08;;;;;;;19.47;10.87;;;6.40;45.40;;;;;;5020907;28;20298;-86
2022/03/21 06:56:36;;;;;;;19.07;10.90;;;6.60;39.40;;;;;;5027117;28;20306;-87
2022/03/21 06:59:04;;;;;;;18.93;11.90;;;6.90;39.40;;;;;;5028214;28;20204;-86
2022/03/21 07:01:35;;;;;;;18.23;10.73;;;7.20;36.30;;;;;;5009623;28;20234;-86
2022/03/21 07:04:03;;;;;;;19.90;10.87;;;7.50;36.90;;;;;;5024738;28;20203;-88
2022/03/21 07:06:30;;;;;;;21.70;10.60;;;7.90;33.50;;;;;;5025913;28;20287;-86
2022/03/21 07:08:59;;;;;;;20.88;11.60;;;8.50;31.70;;;;;;5022170;28;20195;-86
2022/03/21 07:11:26;;;;;;;19.92;10.55;;;8.70;30.00;;;;;;5026392;28;20211;-86
2022/03/21 07:13:54;;;;;;;17.70;11.40;;;8.50;30.00;;;;;;5020494;28;20210;-86
2022/03/21 07:16:21;;;;;;;18.52;11.23;;;8.30;29.60;;;;;;5025909;28;20828;-86
2022/03/21 07:18:51;;;;;;;22.42;11.30;;;8.00;30.40;;;;;;5026556;28;20230;-86
2022/03/21 07:21:19;;;;;;;20.55;11.02;;;7.80;30.10;;;;;;5026492;28;20619;-86
2022/03/21 07:23:47;;;;;;;17.17;10.73;;;8.00;31.60;;;;;;5011511;28;20211;-86
2022/03/21 07:26:16;;;;;;;18.60;11.55;;;8.20;30.90;;;;;;5026746;28;20214;-86
2022/03/21 07:28:43;;;;;;;18.65;11.55;;;8.20;30.90;;;;;;5027437;28;20235;-86
2022/03/21 07:31:11;;;;;;;19.48;11.20;;;8.10;29.60;;;;;;5009075;28;20219;-86
2022/03/21 07:33:38;;;;;;;20.10;11.55;;;8.30;31.50;;;;;;5025706;28;20651;-87
2022/03/21 07:36:06;;;;;;;24.63;11.55;;;8.40;29.90;;;;;;5027122;28;20202;-86
2022/03/21 07:38:33;;;;;;;16.13;11.18;;;8.10;29.60;;;;;;5015952;28;20224;-87
2022/03/21 07:49:20;;;;;;;19.40;11.35;;;8.50;29.40;;;;;;5022364;28;20219;-86
2022/03/21 07:58:06;;;;;;;19.70;11.55;;;10.10;23.70;;;;;;5003550;28;20227;-86
2022/03/21 08:00:36;;;;;;;18.80;12.02;;;9.90;25.00;;;;;;5022010;28;20211;-86
2022/03/21 08:03:09;;;;;;;16.45;12.23;;;9.60;24.70;;;;;;5038583;28;20246;-88
2022/03/21 08:36:12;;;;;;;20.75;11.88;;;10.50;20.90;;;;;;4920417;29;20241;-86
2022/03/21 09:07:04;;;;;;;17.90;12.85;;;14.80;14.50;;;;;;4769412;30;20218;-87
2022/03/21 09:10:20;;;;;;;18.90;13.02;;;15.70;13.10;;;;;;4825416;29;20267;-87
2022/03/21 09:13:17;;;;;;;19.83;13.75;;;16.60;12.30;;;;;;5016307;28;20590;-89
2022/03/21 09:15:52;;;;;;;20.77;14.13;;;16.20;12.60;;;;;;5040541;28;20218;-88
2022/03/21 09:18:34;;;;;;;23.92;13.32;;;16.00;12.00;;;;;;5034345;28;20242;-90
2022/03/21 09:21:14;;;;;;;15.85;12.43;;;16.50;11.00;;;;;;5036830;28;20203;-87
2022/03/21 09:24:06;;;;;;;19.58;13.48;;;16.80;12.60;;;;;;5027433;28;20226;-87
2022/03/21 09:26:36;;;;;;;18.15;13.20;;;18.20;9.80;;;;;;5020203;28;20736;-87
2022/03/21 09:29:03;;;;;;;16.10;13.05;;;18.30;9.90;;;;;;5021761;28;20222;-87
2022/03/21 09:31:30;;;;;;;19.35;13.27;;;18.80;10.20;;;;;;5025843;28;20947;-87
2022/03/21 09:33:57;;;;;;;20.00;13.73;;;19.60;9.20;;;;;;5030120;28;20205;-85
2022/03/21 09:36:24;;;;;;;19.95;12.95;;;20.00;8.00;;;;;;5016687;28;20215;-83
2022/03/21 09:38:51;;;;;;;18.65;13.50;;;21.10;7.90;;;;;;5005475;28;20211;-83
2022/03/21 09:41:22;;;;;;;17.33;14.30;;;21.70;5.70;;;;;;5004203;28;20196;-83
2022/03/21 09:43:51;;;;;;;15.07;13.07;;;21.50;5.60;;;;;;5012873;28;20194;-83
2022/03/21 09:46:20;;;;;;;20.05;13.95;;;21.50;5.60;;;;;;5020487;28;20257;-81
2022/03/21 09:48:48;;;;;;;17.13;13.77;;;21.10;6.20;;;;;;5015931;28;20242;-81
2022/03/21 09:51:20;;;;;;;16.40;13.27;;;20.90;5.60;;;;;;5015164;28;20203;-82
2022/03/21 09:53:47;;;;;;;15.88;13.10;;;20.20;6.50;;;;;;5015524;28;20195;-83
2022/03/21 09:56:15;;;;;;;16.98;14.15;;;20.30;6.20;;;;;;5012759;28;20198;-81
2022/03/21 09:58:42;;;;;;;15.38;13.63;;;19.70;7.20;;;;;;5016701;28;20211;-81
2022/03/21 10:01:12;;;;;;;17.55;13.23;;;19.80;6.20;;;;;;5028560;28;20210;-81
2022/03/21 10:03:39;;;;;;;17.95;13.27;;;21.60;5.40;;;;;;5024694;28;20199;-81
2022/03/21 10:06:27;;;;;;;15.25;12.98;;;22.10;5.20;;;;;;5016248;28;20207;-82
2022/03/21 10:09:05;;;;;;;15.48;13.13;;;22.90;4.10;;;;;;5016600;28;20289;-81
2022/03/21 10:11:32;;;;;;;17.38;12.15;;;22.50;3.60;;;;;;5014661;28;20230;-82
2022/03/21 10:14:20;;;;;;;14.43;12.07;;;22.80;4.10;;;;;;5017931;28;20213;-81
2022/03/21 10:16:53;;;;;;;17.65;13.07;;;22.80;3.80;;;;;;5015412;28;20230;-82
2022/03/21 10:19:19;;;;;;;18.05;12.80;;;21.80;4.60;;;;;;4986992;28;20210;-82
2022/03/21 10:22:02;;;;;;;13.55;12.20;;;22.00;4.70;;;;;;5020162;28;20229;-83
2022/03/21 10:24:35;;;;;;;13.45;12.05;;;22.50;4.50;;;;;;5019858;28;20210;-82
2022/03/21 10:27:02;;;;;;;14.20;12.32;;;22.70;4.00;;;;;;5006016;28;20227;-83
2022/03/21 10:29:29;;;;;;;14.40;12.90;;;21.40;5.60;;;;;;5017978;28;20603;-82
2022/03/21 10:31:58;;;;;;;16.13;12.48;;;21.10;5.10;;;;;;5013727;28;20222;-82
2022/03/21 10:34:30;;;;;;;13.60;12.18;;;20.50;5.90;;;;;;5019178;28;20209;-82
2022/03/21 10:37:05;;;;;;;15.15;12.63;;;20.30;6.20;;;;;;5029903;28;20218;-82
2022/03/21 10:39:33;;;;;;;13.43;12.02;;;20.10;7.00;;;;;;5028382;28;20261;-82
2022/03/21 10:42:02;;;;;;;17.63;12.27;;;20.80;6.80;;;;;;5013236;28;20620;-82
2022/03/21 10:44:30;;;;;;;17.38;13.25;;;21.50;4.80;;;;;;5029084;28;20820;-81
2022/03/21 10:47:00;;;;;;;14.90;13.35;;;21.50;5.90;;;;;;4998347;28;20223;-81
2022/03/21 10:49:32;;;;;;;18.50;12.52;;;20.80;6.60;;;;;;5011818;28;20213;-82
2022/03/21 10:52:00;;;;;;;15.73;12.95;;;20.50;7.10;;;;;;5021128;28;20235;-82
2022/03/21 10:54:42;;;;;;;14.68;12.70;;;20.00;6.20;;;;;;5022466;28;20747;-83
2022/03/21 10:57:27;;;;;;;16.52;12.85;;;20.40;5.40;;;;;;5005976;28;20233;-81
2022/03/21 11:00:13;;;;;;;13.32;11.93;;;20.30;6.20;;;;;;5021630;28;20710;-82
2022/03/21 11:02:52;;;;;;;15.68;12.48;;;20.50;6.60;;;;;;5026579;28;20599;-82
2022/03/21 11:05:21;;;;;;;17.00;12.27;;;20.40;6.20;;;;;;5022329;28;20221;-82
2022/03/21 11:07:49;;;;;;;16.38;12.73;;;21.10;5.40;;;;;;5015999;28;20223;-82
2022/03/21 11:10:18;;;;;;;16.95;13.00;;;20.80;5.20;;;;;;5018677;28;20222;-82
2022/03/21 11:12:46;;;;;;;13.32;11.90;;;20.70;6.10;;;;;;5015469;28;20226;-82
2022/03/21 11:15:14;;;;;;;15.20;12.48;;;20.20;5.70;;;;;;5012195;28;20235;-85
2022/03/21 11:17:51;;;;;;;17.35;12.82;;;19.70;7.20;;;;;;5025272;28;20227;-87
2022/03/21 11:20:23;;;;;;;16.20;12.45;;;19.10;7.50;;;;;;5018187;28;20689;-88
2022/03/21 11:22:52;;;;;;;13.88;12.27;;;18.60;7.50;;;;;;5020212;28;20255;-88
2022/03/21 11:25:20;;;;;;;15.75;12.45;;;17.50;9.30;;;;;;5014401;28;20238;-88
2022/03/21 11:28:30;;;;;;;15.85;12.30;;;16.90;9.00;;;;;;4992724;28;20531;-88
2022/03/21 11:34:37;;;;;;;17.67;11.90;;;16.10;11.90;;;;;;5017813;28;20226;-88
2022/03/21 11:37:29;;;;;;;13.82;11.05;;;16.20;9.50;;;;;;5003532;28;20238;-89
2022/03/21 11:40:39;;;;;;;14.20;12.05;;;16.00;9.80;;;;;;5029687;28;20199;-88
2022/03/21 11:43:29;;;;;;;16.90;12.38;;;15.90;9.80;;;;;;5014260;28;20238;-88
2022/03/21 11:45:57;;;;;;;20.98;12.60;;;14.70;11.20;;;;;;4998794;28;20204;-87
2022/03/21 11:48:42;;;;;;;14.52;11.60;;;14.90;11.50;;;;;;5039818;28;20238;-87
2022/03/21 11:52:14;;;;;;;13.57;11.25;;;15.20;11.30;;;;;;5018607;28;20292;-87
2022/03/21 11:55:01;;;;;;;14.07;11.73;;;15.30;11.30;;;;;;5009732;28;20219;-89
2022/03/21 11:57:38;;;;;;;14.20;10.73;;;15.30;11.80;;;;;;5019867;28;20756;-87
2022/03/21 12:00:29;;;;;;;17.42;11.68;;;15.20;10.40;;;;;;5030741;28;20210;-87
2022/03/21 12:03:06;;;;;;;16.08;11.85;;;15.20;10.90;;;;;;5009691;28;20228;-89
2022/03/21 12:06:29;;;;;;;;;;;;;;;;;;;;;
2022/03/21 12:09:13;;;;;;;16.15;11.30;;;15.10;11.10;;;;;;4998934;28;20485;-88
2022/03/21 12:12:04;;;;;;;14.30;11.18;;;14.50;11.20;;;;;;5027871;28;20253;-87
2022/03/21 12:14:50;;;;;;;17.60;11.95;;;14.60;11.60;;;;;;5030682;28;20509;-88
2022/03/21 12:17:50;;;;;;;15.13;11.50;;;14.70;11.50;;;;;;5026380;28;20750;-87
2022/03/21 12:21:30;;;;;;;17.15;11.25;;;14.70;11.60;;;;;;5003185;28;20211;-88
2022/03/21 13:12:27;;;;;;;12.95;10.32;;;14.20;11.70;;;;;;4974800;28;20264;-88
2022/03/21 14:13:34;;;;;;;14.32;10.80;;;14.60;10.00;;;;;;4909321;29;20245;-87
2022/03/21 14:16:10;;;;;;;16.67;10.13;;;14.30;10.70;;;;;;4953101;29;20198;-87
2022/03/21 14:18:57;;;;;;;13.48;10.45;;;14.30;10.90;;;;;;4965764;28;20271;-88
2022/03/21 14:27:36;;;;;;;14.68;10.82;;;14.40;11.40;;;;;;4959114;28;20237;-87
2022/03/21 14:37:29;;;;;;;16.25;11.10;;;14.40;11.00;;;;;;4951613;28;20226;-87
2022/03/21 14:44:06;;;;;;;16.77;11.10;;;14.40;11.20;;;;;;4937582;28;20235;-88
2022/03/21 15:16:58;;;;;;;17.17;11.30;;;14.30;13.60;;;;;;4843243;29;20277;-89
2022/03/21 15:19:55;;;;;;;15.15;11.18;;;14.20;14.30;;;;;;4850255;29;20256;-88
2022/03/21 15:22:28;;;;;;;17.05;12.13;;;14.10;15.10;;;;;;4933059;28;20296;-89
2022/03/21 15:24:56;;;;;;;15.63;11.23;;;14.10;15.20;;;;;;4999034;28;20265;-87
2022/03/21 15:27:25;;;;;;;14.98;11.10;;;14.10;14.70;;;;;;5018965;28;20314;-89
2022/03/21 15:30:06;;;;;;;15.05;11.70;;;14.20;14.30;;;;;;5021143;28;20219;-87
2022/03/21 15:32:34;;;;;;;13.40;10.95;;;14.20;14.30;;;;;;5017602;28;20237;-89
2022/03/21 15:35:07;;;;;;;14.38;10.80;;;14.20;14.10;;;;;;5018135;28;20196;-90
2022/03/21 15:44:11;;;;;;;14.43;11.50;;;13.80;14.70;;;;;;5012115;28;20304;-89
2022/03/21 15:50:33;;;;;;;14.43;11.23;;;13.90;15.00;;;;;;4964089;28;20233;-93
2022/03/21 15:57:00;;;;;;;17.38;11.88;;;13.80;15.60;;;;;;4876676;29;20208;-92
2022/03/21 16:44:20;;;;;;;15.80;11.55;;;12.80;18.00;;;;;;4726934;30;20257;-91
2022/03/21 16:49:47;;;;;;;17.55;11.93;;;12.70;18.40;;;;;;4827136;29;20605;-88
2022/03/21 16:52:21;;;;;;;15.35;11.60;;;12.60;18.50;;;;;;4905829;28;20293;-88
2022/03/21 16:54:54;;;;;;;19.33;12.48;;;12.50;18.40;;;;;;4989793;28;20236;-89
2022/03/21 17:23:06;;;;;;;19.30;13.35;;;12.10;21.50;;;;;;4833542;29;20237;-87
2022/03/21 17:34:28;;;;;;;19.02;12.38;;;11.80;21.30;;;;;;4850841;28;20221;-87
2022/03/21 17:37:07;;;;;;;13.32;11.05;;;11.70;21.90;;;;;;4991227;28;20228;-88
2022/03/21 17:39:42;;;;;;;15.25;11.57;;;11.60;21.90;;;;;;4988659;28;20208;-89
2022/03/21 17:42:20;;;;;;;13.45;10.70;;;11.50;22.20;;;;;;4982306;28;20243;-88
2022/03/21 17:48:23;;;;;;;12.70;11.32;;;11.20;23.00;;;;;;4968041;28;20221;-88
2022/03/21 17:51:04;;;;;;;16.70;11.25;;;11.10;24.20;;;;;;4985736;28;20219;-88
2022/03/21 17:53:33;;;;;;;18.98;10.98;;;11.10;23.30;;;;;;4968274;28;20231;-87
2022/03/21 17:56:13;;;;;;;18.92;11.05;;;11.00;24.50;;;;;;4990525;28;20204;-88
2022/03/21 17:58:46;;;;;;;19.48;11.52;;;10.90;24.40;;;;;;4986757;28;20224;-88
2022/03/21 18:04:29;;;;;;;14.57;11.35;;;10.70;24.20;;;;;;4988977;28;20216;-87
2022/03/21 18:07:41;;;;;;;18.55;11.65;;;10.70;24.20;;;;;;4982534;28;20288;-87
2022/03/21 18:10:14;;;;;;;15.75;11.10;;;10.60;24.10;;;;;;4975067;28;20284;-87
2022/03/21 18:12:42;;;;;;;15.05;10.25;;;10.50;24.10;;;;;;4972986;28;20220;-88
2022/03/21 18:23:47;;;;;;;14.68;10.57;;;10.40;23.20;;;;;;4959931;28;20217;-88
2022/03/21 18:29:38;;;;;;;15.77;9.90;;;10.30;22.90;;;;;;4990275;28;20333;-87
2022/03/21 18:32:06;;;;;;;13.27;9.05;;;10.20;22.90;;;;;;4991085;28;20220;-88
2022/03/21 19:23:25;;;;;;;15.93;9.20;;;8.70;25.80;;;;;;4932060;29;20206;-89
2022/03/21 19:25:52;;;;;;;18.92;10.25;;;8.70;24.30;;;;;;4951631;28;20217;-88
2022/03/21 19:28:23;;;;;;;14.60;9.27;;;8.70;24.20;;;;;;4967029;28;20231;-88
2022/03/21 19:30:55;;;;;;;20.35;10.00;;;8.80;24.20;;;;;;4990997;28;20232;-88
2022/03/21 19:33:33;;;;;;;16.63;9.73;;;8.80;24.20;;;;;;4988653;28;20212;-89
2022/03/21 19:36:16;;;;;;;16.30;10.25;;;8.80;24.20;;;;;;4968931;28;20591;-89
2022/03/21 19:38:44;;;;;;;16.58;9.68;;;8.70;24.10;;;;;;4972584;28;20259;-88
2022/03/21 19:41:13;;;;;;;14.63;10.23;;;8.70;24.10;;;;;;4989489;28;20193;-88
2022/03/21 19:46:28;;;;;;;13.90;9.88;;;8.60;24.10;;;;;;4981035;28;20656;-89
2022/03/21 19:49:15;;;;;;;14.57;9.70;;;8.50;24.00;;;;;;4978898;28;20295;-87
2022/03/21 19:51:42;;;;;;;16.45;9.18;;;8.50;24.00;;;;;;4981799;28;20224;-87
2022/03/21 19:54:09;;;;;;;13.65;9.18;;;8.50;24.00;;;;;;4982531;28;20196;-87
2022/03/21 19:56:37;;;;;;;13.07;8.95;;;8.60;24.00;;;;;;4981951;28;20224;-87
2022/03/21 19:59:06;;;;;;;13.40;8.98;;;8.50;24.00;;;;;;4987964;28;20200;-90
2022/03/21 20:01:33;;;;;;;14.00;9.25;;;8.50;24.00;;;;;;4985418;28;20284;-89
2022/03/21 20:04:00;;;;;;;10.90;8.80;;;8.50;24.00;;;;;;4970386;28;20201;-88
2022/03/21 20:06:28;;;;;;;14.73;9.30;;;8.50;24.00;;;;;;4986060;28;20251;-88
2022/03/21 20:09:00;;;;;;;12.73;8.27;;;8.40;23.90;;;;;;4967611;28;20227;-88
2022/03/21 20:11:28;;;;;;;14.93;9.32;;;8.40;23.80;;;;;;4981456;28;20303;-89